sensor_id;sensor_type;location;lat;lon;timestamp;P1;durP1;ratioP1;P2;durP2;ratioP2
6117;SDS011;3089;48.202;11.510;2023-04-07T00:00:10;8.00;;;4.00;;
6117;SDS011;3089;48.202;11.510;2023-04-07T00:02:39;8.30;;;4.20;;
6117;SDS011;3089;48.202;11.510;2023-04-07T00:05:09;6.87;;;3.70;;
6117;SDS011;3089;48.202;11.510;2023-04-07T00:07:37;9.93;;;4.00;;
6117;SDS011;3089;48.202;11.510;2023-04-07T00:10:20;10.63;;;3.73;;
6117;SDS011;3089;48.202;11.510;2023-04-07T00:12:50;7.80;;;3.80;;
6117;SDS011;3089;48.202;11.510;2023-04-07T00:15:18;6.87;;;3.60;;
6117;SDS011;3089;48.202;11.510;2023-04-07T00:17:46;6.97;;;3.70;;
6117;SDS011;3089;48.202;11.510;2023-04-07T00:20:14;6.07;;;3.20;;
6117;SDS011;3089;48.202;11.510;2023-04-07T00:22:42;7.63;;;3.70;;
6117;SDS011;3089;48.202;11.510;2023-04-07T00:25:10;7.67;;;3.90;;
6117;SDS011;3089;48.202;11.510;2023-04-07T00:27:37;9.83;;;4.07;;
6117;SDS011;3089;48.202;11.510;2023-04-07T00:30:07;9.60;;;4.17;;
6117;SDS011;3089;48.202;11.510;2023-04-07T00:32:35;8.63;;;4.00;;
6117;SDS011;3089;48.202;11.510;2023-04-07T00:35:03;5.80;;;3.50;;
6117;SDS011;3089;48.202;11.510;2023-04-07T00:37:32;7.00;;;3.30;;
6117;SDS011;3089;48.202;11.510;2023-04-07T00:40:00;8.90;;;4.40;;
6117;SDS011;3089;48.202;11.510;2023-04-07T00:42:29;6.80;;;3.83;;
6117;SDS011;3089;48.202;11.510;2023-04-07T00:44:57;6.57;;;3.17;;
6117;SDS011;3089;48.202;11.510;2023-04-07T00:47:26;8.00;;;3.80;;
6117;SDS011;3089;48.202;11.510;2023-04-07T00:49:54;8.57;;;3.67;;
6117;SDS011;3089;48.202;11.510;2023-04-07T00:52:21;8.63;;;4.00;;
6117;SDS011;3089;48.202;11.510;2023-04-07T00:54:55;9.23;;;3.83;;
6117;SDS011;3089;48.202;11.510;2023-04-07T00:57:22;7.43;;;3.63;;
6117;SDS011;3089;48.202;11.510;2023-04-07T00:59:51;8.80;;;4.07;;
6117;SDS011;3089;48.202;11.510;2023-04-07T01:02:20;8.60;;;4.10;;
6117;SDS011;3089;48.202;11.510;2023-04-07T01:04:55;9.37;;;3.60;;
6117;SDS011;3089;48.202;11.510;2023-04-07T01:07:31;8.57;;;4.00;;
6117;SDS011;3089;48.202;11.510;2023-04-07T01:10:02;8.93;;;3.70;;
6117;SDS011;3089;48.202;11.510;2023-04-07T01:12:33;17.40;;;4.73;;
6117;SDS011;3089;48.202;11.510;2023-04-07T01:15:07;5.20;;;3.23;;
6117;SDS011;3089;48.202;11.510;2023-04-07T01:17:38;6.67;;;3.50;;
6117;SDS011;3089;48.202;11.510;2023-04-07T01:20:13;8.67;;;4.00;;
6117;SDS011;3089;48.202;11.510;2023-04-07T01:22:44;8.67;;;4.40;;
6117;SDS011;3089;48.202;11.510;2023-04-07T01:25:21;8.13;;;3.93;;
6117;SDS011;3089;48.202;11.510;2023-04-07T01:27:58;7.30;;;3.53;;
6117;SDS011;3089;48.202;11.510;2023-04-07T01:30:43;5.50;;;2.83;;
6117;SDS011;3089;48.202;11.510;2023-04-07T01:33:11;7.63;;;3.63;;
6117;SDS011;3089;48.202;11.510;2023-04-07T01:35:42;6.63;;;3.43;;
6117;SDS011;3089;48.202;11.510;2023-04-07T01:38:10;9.33;;;3.33;;
6117;SDS011;3089;48.202;11.510;2023-04-07T01:40:39;7.80;;;3.53;;
6117;SDS011;3089;48.202;11.510;2023-04-07T01:43:07;7.87;;;3.70;;
6117;SDS011;3089;48.202;11.510;2023-04-07T01:45:36;7.33;;;3.77;;
6117;SDS011;3089;48.202;11.510;2023-04-07T01:48:06;10.80;;;3.77;;
6117;SDS011;3089;48.202;11.510;2023-04-07T01:50:34;5.40;;;3.10;;
6117;SDS011;3089;48.202;11.510;2023-04-07T01:53:04;6.27;;;3.20;;
6117;SDS011;3089;48.202;11.510;2023-04-07T01:55:32;10.03;;;3.67;;
6117;SDS011;3089;48.202;11.510;2023-04-07T01:58:03;12.87;;;3.73;;
6117;SDS011;3089;48.202;11.510;2023-04-07T02:00:32;6.43;;;3.20;;
6117;SDS011;3089;48.202;11.510;2023-04-07T02:03:01;7.00;;;3.37;;
6117;SDS011;3089;48.202;11.510;2023-04-07T02:05:37;8.80;;;3.27;;
6117;SDS011;3089;48.202;11.510;2023-04-07T02:08:07;6.13;;;3.03;;
6117;SDS011;3089;48.202;11.510;2023-04-07T02:10:36;11.73;;;2.70;;
6117;SDS011;3089;48.202;11.510;2023-04-07T02:13:05;5.00;;;3.20;;
6117;SDS011;3089;48.202;11.510;2023-04-07T02:15:35;5.27;;;2.90;;
6117;SDS011;3089;48.202;11.510;2023-04-07T02:18:05;6.90;;;3.50;;
6117;SDS011;3089;48.202;11.510;2023-04-07T02:20:35;5.13;;;2.57;;
6117;SDS011;3089;48.202;11.510;2023-04-07T02:23:05;6.60;;;3.20;;
6117;SDS011;3089;48.202;11.510;2023-04-07T02:25:34;5.73;;;3.23;;
6117;SDS011;3089;48.202;11.510;2023-04-07T02:28:03;5.60;;;2.67;;
6117;SDS011;3089;48.202;11.510;2023-04-07T02:30:31;6.20;;;2.90;;
6117;SDS011;3089;48.202;11.510;2023-04-07T02:32:59;6.60;;;3.30;;
6117;SDS011;3089;48.202;11.510;2023-04-07T02:35:29;9.87;;;2.87;;
6117;SDS011;3089;48.202;11.510;2023-04-07T02:37:57;5.03;;;2.40;;
6117;SDS011;3089;48.202;11.510;2023-04-07T02:40:25;5.70;;;2.60;;
6117;SDS011;3089;48.202;11.510;2023-04-07T02:42:53;6.60;;;2.30;;
6117;SDS011;3089;48.202;11.510;2023-04-07T02:45:21;6.83;;;2.50;;
6117;SDS011;3089;48.202;11.510;2023-04-07T02:47:49;8.63;;;2.50;;
6117;SDS011;3089;48.202;11.510;2023-04-07T02:50:18;6.60;;;2.90;;
6117;SDS011;3089;48.202;11.510;2023-04-07T02:52:47;7.17;;;3.13;;
6117;SDS011;3089;48.202;11.510;2023-04-07T02:55:15;6.37;;;2.77;;
6117;SDS011;3089;48.202;11.510;2023-04-07T02:57:44;4.77;;;2.10;;
6117;SDS011;3089;48.202;11.510;2023-04-07T03:00:13;4.33;;;2.20;;
6117;SDS011;3089;48.202;11.510;2023-04-07T03:02:41;4.87;;;2.70;;
6117;SDS011;3089;48.202;11.510;2023-04-07T03:05:09;5.50;;;2.10;;
6117;SDS011;3089;48.202;11.510;2023-04-07T03:07:37;5.20;;;2.73;;
6117;SDS011;3089;48.202;11.510;2023-04-07T03:10:07;4.73;;;2.10;;
6117;SDS011;3089;48.202;11.510;2023-04-07T03:12:35;5.07;;;2.30;;
6117;SDS011;3089;48.202;11.510;2023-04-07T03:15:03;4.90;;;2.40;;
6117;SDS011;3089;48.202;11.510;2023-04-07T03:17:32;4.90;;;2.50;;
6117;SDS011;3089;48.202;11.510;2023-04-07T03:20:00;5.37;;;2.37;;
6117;SDS011;3089;48.202;11.510;2023-04-07T03:22:28;5.10;;;2.10;;
6117;SDS011;3089;48.202;11.510;2023-04-07T03:24:58;5.40;;;2.40;;
6117;SDS011;3089;48.202;11.510;2023-04-07T03:27:28;6.03;;;2.80;;
6117;SDS011;3089;48.202;11.510;2023-04-07T03:29:56;7.93;;;3.70;;
6117;SDS011;3089;48.202;11.510;2023-04-07T03:32:24;8.43;;;2.50;;
6117;SDS011;3089;48.202;11.510;2023-04-07T03:34:51;5.07;;;2.10;;
6117;SDS011;3089;48.202;11.510;2023-04-07T03:37:19;6.40;;;2.30;;
6117;SDS011;3089;48.202;11.510;2023-04-07T03:39:47;4.47;;;2.40;;
6117;SDS011;3089;48.202;11.510;2023-04-07T03:42:17;5.27;;;2.63;;
6117;SDS011;3089;48.202;11.510;2023-04-07T03:44:46;4.40;;;2.13;;
6117;SDS011;3089;48.202;11.510;2023-04-07T03:47:14;7.30;;;2.73;;
6117;SDS011;3089;48.202;11.510;2023-04-07T03:49:42;5.80;;;2.73;;
6117;SDS011;3089;48.202;11.510;2023-04-07T03:52:09;6.60;;;2.20;;
6117;SDS011;3089;48.202;11.510;2023-04-07T03:54:37;6.13;;;2.50;;
6117;SDS011;3089;48.202;11.510;2023-04-07T03:57:05;4.40;;;2.40;;
6117;SDS011;3089;48.202;11.510;2023-04-07T03:59:34;4.03;;;1.93;;
6117;SDS011;3089;48.202;11.510;2023-04-07T04:02:03;4.97;;;2.30;;
6117;SDS011;3089;48.202;11.510;2023-04-07T04:04:32;7.90;;;2.50;;
6117;SDS011;3089;48.202;11.510;2023-04-07T04:07:00;5.60;;;2.50;;
6117;SDS011;3089;48.202;11.510;2023-04-07T04:09:28;5.17;;;2.57;;
6117;SDS011;3089;48.202;11.510;2023-04-07T04:11:56;5.27;;;2.73;;
6117;SDS011;3089;48.202;11.510;2023-04-07T04:14:23;5.40;;;2.67;;
6117;SDS011;3089;48.202;11.510;2023-04-07T04:16:54;5.90;;;2.67;;
6117;SDS011;3089;48.202;11.510;2023-04-07T04:19:23;8.70;;;2.90;;
6117;SDS011;3089;48.202;11.510;2023-04-07T04:21:51;5.37;;;2.70;;
6117;SDS011;3089;48.202;11.510;2023-04-07T04:24:19;6.77;;;2.43;;
6117;SDS011;3089;48.202;11.510;2023-04-07T04:26:47;6.70;;;3.33;;
6117;SDS011;3089;48.202;11.510;2023-04-07T04:29:15;7.43;;;3.00;;
6117;SDS011;3089;48.202;11.510;2023-04-07T04:31:42;8.20;;;3.00;;
6117;SDS011;3089;48.202;11.510;2023-04-07T04:34:11;6.30;;;3.50;;
6117;SDS011;3089;48.202;11.510;2023-04-07T04:36:40;6.70;;;2.93;;
6117;SDS011;3089;48.202;11.510;2023-04-07T04:39:08;6.83;;;2.63;;
6117;SDS011;3089;48.202;11.510;2023-04-07T04:41:36;6.33;;;2.63;;
6117;SDS011;3089;48.202;11.510;2023-04-07T04:44:03;6.33;;;2.77;;
6117;SDS011;3089;48.202;11.510;2023-04-07T04:46:32;6.27;;;3.00;;
6117;SDS011;3089;48.202;11.510;2023-04-07T04:49:00;7.30;;;2.40;;
6117;SDS011;3089;48.202;11.510;2023-04-07T04:51:28;5.97;;;2.90;;
6117;SDS011;3089;48.202;11.510;2023-04-07T04:53:57;5.37;;;2.80;;
6117;SDS011;3089;48.202;11.510;2023-04-07T04:56:25;4.67;;;2.53;;
6117;SDS011;3089;48.202;11.510;2023-04-07T04:58:53;8.40;;;2.70;;
6117;SDS011;3089;48.202;11.510;2023-04-07T05:01:21;5.90;;;2.80;;
6117;SDS011;3089;48.202;11.510;2023-04-07T05:03:49;6.17;;;2.90;;
6117;SDS011;3089;48.202;11.510;2023-04-07T05:06:17;5.43;;;2.33;;
6117;SDS011;3089;48.202;11.510;2023-04-07T05:08:45;5.53;;;2.80;;
6117;SDS011;3089;48.202;11.510;2023-04-07T05:11:15;6.43;;;2.90;;
6117;SDS011;3089;48.202;11.510;2023-04-07T05:13:42;6.87;;;2.90;;
6117;SDS011;3089;48.202;11.510;2023-04-07T05:16:10;6.20;;;3.30;;
6117;SDS011;3089;48.202;11.510;2023-04-07T05:18:38;7.13;;;3.37;;
6117;SDS011;3089;48.202;11.510;2023-04-07T05:21:06;6.70;;;2.97;;
6117;SDS011;3089;48.202;11.510;2023-04-07T05:23:34;6.63;;;2.67;;
6117;SDS011;3089;48.202;11.510;2023-04-07T05:26:02;7.13;;;3.80;;
6117;SDS011;3089;48.202;11.510;2023-04-07T05:28:31;7.33;;;3.30;;
6117;SDS011;3089;48.202;11.510;2023-04-07T05:30:59;6.47;;;3.30;;
6117;SDS011;3089;48.202;11.510;2023-04-07T05:33:27;9.20;;;3.77;;
6117;SDS011;3089;48.202;11.510;2023-04-07T05:35:55;6.10;;;2.93;;
6117;SDS011;3089;48.202;11.510;2023-04-07T05:38:23;7.57;;;3.80;;
6117;SDS011;3089;48.202;11.510;2023-04-07T05:40:51;6.80;;;3.07;;
6117;SDS011;3089;48.202;11.510;2023-04-07T05:43:19;6.17;;;2.80;;
6117;SDS011;3089;48.202;11.510;2023-04-07T05:45:48;6.67;;;3.63;;
6117;SDS011;3089;48.202;11.510;2023-04-07T05:48:16;9.17;;;4.17;;
6117;SDS011;3089;48.202;11.510;2023-04-07T05:50:44;8.63;;;4.10;;
6117;SDS011;3089;48.202;11.510;2023-04-07T05:53:13;9.37;;;3.30;;
6117;SDS011;3089;48.202;11.510;2023-04-07T05:55:41;9.17;;;4.17;;
6117;SDS011;3089;48.202;11.510;2023-04-07T05:58:09;6.10;;;3.80;;
6117;SDS011;3089;48.202;11.510;2023-04-07T06:00:37;6.60;;;3.57;;
6117;SDS011;3089;48.202;11.510;2023-04-07T06:03:07;7.27;;;3.30;;
6117;SDS011;3089;48.202;11.510;2023-04-07T06:05:35;8.00;;;3.97;;
6117;SDS011;3089;48.202;11.510;2023-04-07T06:08:08;6.63;;;3.37;;
6117;SDS011;3089;48.202;11.510;2023-04-07T06:10:36;8.03;;;4.20;;
6117;SDS011;3089;48.202;11.510;2023-04-07T06:13:05;11.33;;;3.50;;
6117;SDS011;3089;48.202;11.510;2023-04-07T06:15:33;8.00;;;3.43;;
6117;SDS011;3089;48.202;11.510;2023-04-07T06:18:01;8.53;;;4.40;;
6117;SDS011;3089;48.202;11.510;2023-04-07T06:20:31;8.47;;;3.80;;
6117;SDS011;3089;48.202;11.510;2023-04-07T06:22:58;7.30;;;3.63;;
6117;SDS011;3089;48.202;11.510;2023-04-07T06:25:26;6.87;;;3.27;;
6117;SDS011;3089;48.202;11.510;2023-04-07T06:27:54;10.30;;;3.83;;
6117;SDS011;3089;48.202;11.510;2023-04-07T06:30:22;6.67;;;3.30;;
6117;SDS011;3089;48.202;11.510;2023-04-07T06:32:50;6.77;;;2.97;;
6117;SDS011;3089;48.202;11.510;2023-04-07T06:35:18;6.93;;;3.80;;
6117;SDS011;3089;48.202;11.510;2023-04-07T06:37:49;8.63;;;3.73;;
6117;SDS011;3089;48.202;11.510;2023-04-07T06:40:16;8.27;;;3.97;;
6117;SDS011;3089;48.202;11.510;2023-04-07T06:42:44;10.23;;;4.47;;
6117;SDS011;3089;48.202;11.510;2023-04-07T06:45:12;8.20;;;3.60;;
6117;SDS011;3089;48.202;11.510;2023-04-07T06:47:40;5.77;;;3.10;;
6117;SDS011;3089;48.202;11.510;2023-04-07T06:50:08;5.90;;;3.80;;
6117;SDS011;3089;48.202;11.510;2023-04-07T06:52:36;9.37;;;4.17;;
6117;SDS011;3089;48.202;11.510;2023-04-07T06:55:07;12.30;;;4.20;;
6117;SDS011;3089;48.202;11.510;2023-04-07T06:57:35;8.40;;;4.40;;
6117;SDS011;3089;48.202;11.510;2023-04-07T07:00:03;7.30;;;4.00;;
6117;SDS011;3089;48.202;11.510;2023-04-07T07:02:33;8.00;;;4.30;;
6117;SDS011;3089;48.202;11.510;2023-04-07T07:05:01;7.37;;;3.70;;
6117;SDS011;3089;48.202;11.510;2023-04-07T07:07:29;8.43;;;3.80;;
6117;SDS011;3089;48.202;11.510;2023-04-07T07:09:57;9.50;;;4.80;;
6117;SDS011;3089;48.202;11.510;2023-04-07T07:12:27;9.03;;;4.07;;
6117;SDS011;3089;48.202;11.510;2023-04-07T07:14:55;8.70;;;4.37;;
6117;SDS011;3089;48.202;11.510;2023-04-07T07:17:22;7.23;;;3.87;;
6117;SDS011;3089;48.202;11.510;2023-04-07T07:19:50;6.67;;;3.90;;
6117;SDS011;3089;48.202;11.510;2023-04-07T07:22:18;7.50;;;3.73;;
6117;SDS011;3089;48.202;11.510;2023-04-07T07:24:46;12.10;;;4.70;;
6117;SDS011;3089;48.202;11.510;2023-04-07T07:27:16;6.17;;;3.33;;
6117;SDS011;3089;48.202;11.510;2023-04-07T07:29:45;7.50;;;4.03;;
6117;SDS011;3089;48.202;11.510;2023-04-07T07:32:13;7.63;;;4.57;;
6117;SDS011;3089;48.202;11.510;2023-04-07T07:34:41;10.40;;;4.50;;
6117;SDS011;3089;48.202;11.510;2023-04-07T07:37:08;6.87;;;3.80;;
6117;SDS011;3089;48.202;11.510;2023-04-07T07:39:37;9.20;;;3.80;;
6117;SDS011;3089;48.202;11.510;2023-04-07T07:42:05;8.20;;;4.10;;
6117;SDS011;3089;48.202;11.510;2023-04-07T07:44:33;9.07;;;3.93;;
6117;SDS011;3089;48.202;11.510;2023-04-07T07:47:04;10.27;;;4.30;;
6117;SDS011;3089;48.202;11.510;2023-04-07T07:49:32;11.57;;;4.50;;
6117;SDS011;3089;48.202;11.510;2023-04-07T07:52:00;7.20;;;3.80;;
6117;SDS011;3089;48.202;11.510;2023-04-07T07:54:28;9.20;;;4.60;;
6117;SDS011;3089;48.202;11.510;2023-04-07T07:56:56;8.67;;;4.23;;
6117;SDS011;3089;48.202;11.510;2023-04-07T07:59:24;7.23;;;3.90;;
6117;SDS011;3089;48.202;11.510;2023-04-07T08:01:51;8.60;;;4.40;;
6117;SDS011;3089;48.202;11.510;2023-04-07T08:04:21;7.23;;;3.70;;
6117;SDS011;3089;48.202;11.510;2023-04-07T08:06:50;9.40;;;3.53;;
6117;SDS011;3089;48.202;11.510;2023-04-07T08:09:18;8.20;;;3.60;;
6117;SDS011;3089;48.202;11.510;2023-04-07T08:11:46;8.50;;;4.23;;
6117;SDS011;3089;48.202;11.510;2023-04-07T08:14:14;7.73;;;3.93;;
6117;SDS011;3089;48.202;11.510;2023-04-07T08:16:43;7.60;;;3.83;;
6117;SDS011;3089;48.202;11.510;2023-04-07T08:19:11;9.20;;;4.10;;
6117;SDS011;3089;48.202;11.510;2023-04-07T08:21:41;8.73;;;4.33;;
6117;SDS011;3089;48.202;11.510;2023-04-07T08:24:12;8.47;;;4.87;;
6117;SDS011;3089;48.202;11.510;2023-04-07T08:26:40;13.20;;;4.83;;
6117;SDS011;3089;48.202;11.510;2023-04-07T08:29:08;8.77;;;4.03;;
6117;SDS011;3089;48.202;11.510;2023-04-07T08:31:35;9.00;;;4.23;;
6117;SDS011;3089;48.202;11.510;2023-04-07T08:34:03;7.87;;;4.20;;
6117;SDS011;3089;48.202;11.510;2023-04-07T08:36:31;9.47;;;4.50;;
6117;SDS011;3089;48.202;11.510;2023-04-07T08:39:01;8.73;;;4.77;;
6117;SDS011;3089;48.202;11.510;2023-04-07T08:41:32;8.47;;;4.17;;
6117;SDS011;3089;48.202;11.510;2023-04-07T08:44:04;7.20;;;4.47;;
6117;SDS011;3089;48.202;11.510;2023-04-07T08:46:33;8.83;;;3.90;;
6117;SDS011;3089;48.202;11.510;2023-04-07T08:49:01;7.53;;;3.90;;
6117;SDS011;3089;48.202;11.510;2023-04-07T08:51:34;8.77;;;4.30;;
6117;SDS011;3089;48.202;11.510;2023-04-07T08:54:07;9.00;;;4.83;;
6117;SDS011;3089;48.202;11.510;2023-04-07T08:56:37;6.63;;;3.70;;
6117;SDS011;3089;48.202;11.510;2023-04-07T08:59:06;7.30;;;4.07;;
6117;SDS011;3089;48.202;11.510;2023-04-07T09:01:35;9.30;;;3.87;;
6117;SDS011;3089;48.202;11.510;2023-04-07T09:04:04;8.20;;;4.23;;
6117;SDS011;3089;48.202;11.510;2023-04-07T09:06:33;8.90;;;4.83;;
6117;SDS011;3089;48.202;11.510;2023-04-07T09:09:03;9.30;;;4.27;;
6117;SDS011;3089;48.202;11.510;2023-04-07T09:11:35;8.80;;;4.77;;
6117;SDS011;3089;48.202;11.510;2023-04-07T09:14:05;11.23;;;5.80;;
6117;SDS011;3089;48.202;11.510;2023-04-07T09:16:33;8.87;;;4.63;;
6117;SDS011;3089;48.202;11.510;2023-04-07T09:19:02;7.47;;;4.10;;
6117;SDS011;3089;48.202;11.510;2023-04-07T09:24:19;9.03;;;4.63;;
6117;SDS011;3089;48.202;11.510;2023-04-07T09:26:50;9.17;;;5.30;;
6117;SDS011;3089;48.202;11.510;2023-04-07T09:29:18;8.83;;;5.10;;
6117;SDS011;3089;48.202;11.510;2023-04-07T09:31:47;8.23;;;4.53;;
6117;SDS011;3089;48.202;11.510;2023-04-07T09:34:26;11.23;;;5.60;;
6117;SDS011;3089;48.202;11.510;2023-04-07T09:36:55;9.67;;;4.63;;
6117;SDS011;3089;48.202;11.510;2023-04-07T09:39:24;8.50;;;4.30;;
6117;SDS011;3089;48.202;11.510;2023-04-07T09:41:53;7.50;;;3.83;;
6117;SDS011;3089;48.202;11.510;2023-04-07T09:44:21;8.40;;;4.97;;
6117;SDS011;3089;48.202;11.510;2023-04-07T09:46:51;8.30;;;4.60;;
6117;SDS011;3089;48.202;11.510;2023-04-07T09:49:20;10.33;;;4.00;;
6117;SDS011;3089;48.202;11.510;2023-04-07T09:51:51;8.33;;;4.60;;
6117;SDS011;3089;48.202;11.510;2023-04-07T09:54:30;9.37;;;4.37;;
6117;SDS011;3089;48.202;11.510;2023-04-07T09:57:02;9.10;;;5.10;;
6117;SDS011;3089;48.202;11.510;2023-04-07T09:59:31;8.20;;;4.20;;
6117;SDS011;3089;48.202;11.510;2023-04-07T10:02:00;10.17;;;5.83;;
6117;SDS011;3089;48.202;11.510;2023-04-07T10:04:28;9.43;;;4.90;;
6117;SDS011;3089;48.202;11.510;2023-04-07T10:06:57;10.33;;;4.87;;
6117;SDS011;3089;48.202;11.510;2023-04-07T10:09:26;7.00;;;4.00;;
6117;SDS011;3089;48.202;11.510;2023-04-07T10:11:55;6.53;;;3.47;;
6117;SDS011;3089;48.202;11.510;2023-04-07T10:14:26;9.33;;;4.57;;
6117;SDS011;3089;48.202;11.510;2023-04-07T10:16:57;9.03;;;4.33;;
6117;SDS011;3089;48.202;11.510;2023-04-07T10:19:28;11.10;;;5.13;;
6117;SDS011;3089;48.202;11.510;2023-04-07T10:21:57;9.57;;;4.10;;
6117;SDS011;3089;48.202;11.510;2023-04-07T10:24:32;7.70;;;4.40;;
6117;SDS011;3089;48.202;11.510;2023-04-07T10:27:13;8.40;;;4.70;;
6117;SDS011;3089;48.202;11.510;2023-04-07T10:29:45;11.00;;;5.03;;
6117;SDS011;3089;48.202;11.510;2023-04-07T10:32:17;10.50;;;4.30;;
6117;SDS011;3089;48.202;11.510;2023-04-07T10:34:54;9.33;;;4.00;;
6117;SDS011;3089;48.202;11.510;2023-04-07T10:37:24;10.50;;;5.47;;
6117;SDS011;3089;48.202;11.510;2023-04-07T10:42:57;11.67;;;5.00;;
6117;SDS011;3089;48.202;11.510;2023-04-07T10:48:25;9.20;;;4.87;;
6117;SDS011;3089;48.202;11.510;2023-04-07T10:57:03;8.63;;;4.97;;
6117;SDS011;3089;48.202;11.510;2023-04-07T10:59:36;8.67;;;4.50;;
6117;SDS011;3089;48.202;11.510;2023-04-07T11:05:04;8.20;;;5.10;;
6117;SDS011;3089;48.202;11.510;2023-04-07T11:07:42;9.00;;;5.40;;
6117;SDS011;3089;48.202;11.510;2023-04-07T11:10:12;7.80;;;4.47;;
6117;SDS011;3089;48.202;11.510;2023-04-07T11:12:41;7.90;;;4.10;;
6117;SDS011;3089;48.202;11.510;2023-04-07T11:15:15;8.63;;;5.60;;
6117;SDS011;3089;48.202;11.510;2023-04-07T11:17:45;8.70;;;4.77;;
6117;SDS011;3089;48.202;11.510;2023-04-07T11:20:13;8.23;;;5.43;;
6117;SDS011;3089;48.202;11.510;2023-04-07T11:22:41;9.53;;;5.43;;
6117;SDS011;3089;48.202;11.510;2023-04-07T11:25:21;8.90;;;5.20;;
6117;SDS011;3089;48.202;11.510;2023-04-07T11:27:52;9.00;;;5.07;;
6117;SDS011;3089;48.202;11.510;2023-04-07T11:30:20;9.43;;;4.90;;
6117;SDS011;3089;48.202;11.510;2023-04-07T11:32:50;8.20;;;5.10;;
6117;SDS011;3089;48.202;11.510;2023-04-07T11:35:18;11.07;;;5.43;;
6117;SDS011;3089;48.202;11.510;2023-04-07T11:37:46;10.17;;;5.00;;
6117;SDS011;3089;48.202;11.510;2023-04-07T11:40:21;8.17;;;5.00;;
6117;SDS011;3089;48.202;11.510;2023-04-07T11:42:58;10.30;;;4.90;;
6117;SDS011;3089;48.202;11.510;2023-04-07T11:45:27;7.50;;;4.33;;
6117;SDS011;3089;48.202;11.510;2023-04-07T11:47:57;7.60;;;4.10;;
6117;SDS011;3089;48.202;11.510;2023-04-07T11:50:38;11.67;;;4.83;;
6117;SDS011;3089;48.202;11.510;2023-04-07T11:53:07;7.63;;;4.30;;
6117;SDS011;3089;48.202;11.510;2023-04-07T11:55:35;7.77;;;4.23;;
6117;SDS011;3089;48.202;11.510;2023-04-07T11:58:06;8.57;;;4.77;;
6117;SDS011;3089;48.202;11.510;2023-04-07T12:00:35;9.10;;;4.60;;
6117;SDS011;3089;48.202;11.510;2023-04-07T12:03:20;9.00;;;4.67;;
6117;SDS011;3089;48.202;11.510;2023-04-07T12:05:48;8.43;;;4.87;;
6117;SDS011;3089;48.202;11.510;2023-04-07T12:08:17;7.20;;;4.60;;
6117;SDS011;3089;48.202;11.510;2023-04-07T12:10:45;11.33;;;3.90;;
6117;SDS011;3089;48.202;11.510;2023-04-07T12:13:13;9.00;;;4.80;;
6117;SDS011;3089;48.202;11.510;2023-04-07T12:15:41;8.13;;;4.03;;
6117;SDS011;3089;48.202;11.510;2023-04-07T12:18:13;5.97;;;3.53;;
6117;SDS011;3089;48.202;11.510;2023-04-07T12:20:43;8.20;;;4.10;;
6117;SDS011;3089;48.202;11.510;2023-04-07T12:23:10;17.57;;;4.67;;
6117;SDS011;3089;48.202;11.510;2023-04-07T12:25:38;8.17;;;4.67;;
6117;SDS011;3089;48.202;11.510;2023-04-07T12:28:06;9.47;;;5.10;;
6117;SDS011;3089;48.202;11.510;2023-04-07T12:30:34;10.17;;;5.53;;
6117;SDS011;3089;48.202;11.510;2023-04-07T12:33:02;7.73;;;4.03;;
6117;SDS011;3089;48.202;11.510;2023-04-07T12:35:30;9.10;;;4.57;;
6117;SDS011;3089;48.202;11.510;2023-04-07T12:37:59;7.40;;;4.23;;
6117;SDS011;3089;48.202;11.510;2023-04-07T12:40:28;7.63;;;4.80;;
6117;SDS011;3089;48.202;11.510;2023-04-07T12:42:56;8.13;;;4.90;;
6117;SDS011;3089;48.202;11.510;2023-04-07T12:45:24;8.70;;;5.00;;
6117;SDS011;3089;48.202;11.510;2023-04-07T12:47:52;8.87;;;5.20;;
6117;SDS011;3089;48.202;11.510;2023-04-07T12:50:20;13.20;;;4.90;;
6117;SDS011;3089;48.202;11.510;2023-04-07T12:52:48;7.60;;;4.20;;
6117;SDS011;3089;48.202;11.510;2023-04-07T12:55:17;9.17;;;5.47;;
6117;SDS011;3089;48.202;11.510;2023-04-07T12:57:45;8.93;;;5.10;;
6117;SDS011;3089;48.202;11.510;2023-04-07T13:00:13;6.73;;;4.30;;
6117;SDS011;3089;48.202;11.510;2023-04-07T13:02:41;13.03;;;4.93;;
6117;SDS011;3089;48.202;11.510;2023-04-07T13:05:10;9.27;;;5.33;;
6117;SDS011;3089;48.202;11.510;2023-04-07T13:07:38;9.67;;;4.90;;
6117;SDS011;3089;48.202;11.510;2023-04-07T13:10:06;8.40;;;4.77;;
6117;SDS011;3089;48.202;11.510;2023-04-07T13:12:36;7.37;;;4.23;;
6117;SDS011;3089;48.202;11.510;2023-04-07T13:15:05;7.83;;;4.23;;
6117;SDS011;3089;48.202;11.510;2023-04-07T13:17:33;7.53;;;4.43;;
6117;SDS011;3089;48.202;11.510;2023-04-07T13:20:03;8.23;;;4.73;;
6117;SDS011;3089;48.202;11.510;2023-04-07T13:22:33;8.23;;;4.63;;
6117;SDS011;3089;48.202;11.510;2023-04-07T13:25:01;10.10;;;4.47;;
6117;SDS011;3089;48.202;11.510;2023-04-07T13:27:29;9.50;;;5.10;;
6117;SDS011;3089;48.202;11.510;2023-04-07T13:29:58;9.23;;;4.80;;
6117;SDS011;3089;48.202;11.510;2023-04-07T13:32:26;9.90;;;5.40;;
6117;SDS011;3089;48.202;11.510;2023-04-07T13:34:54;6.90;;;3.90;;
6117;SDS011;3089;48.202;11.510;2023-04-07T13:37:22;7.27;;;4.03;;
6117;SDS011;3089;48.202;11.510;2023-04-07T13:39:50;6.30;;;3.70;;
6117;SDS011;3089;48.202;11.510;2023-04-07T13:42:18;8.03;;;3.93;;
6117;SDS011;3089;48.202;11.510;2023-04-07T13:44:47;10.90;;;5.40;;
6117;SDS011;3089;48.202;11.510;2023-04-07T13:47:17;8.07;;;4.60;;
6117;SDS011;3089;48.202;11.510;2023-04-07T13:49:45;7.90;;;3.30;;
6117;SDS011;3089;48.202;11.510;2023-04-07T13:52:13;11.27;;;4.20;;
6117;SDS011;3089;48.202;11.510;2023-04-07T13:54:41;6.70;;;3.50;;
6117;SDS011;3089;48.202;11.510;2023-04-07T13:57:11;6.90;;;3.60;;
6117;SDS011;3089;48.202;11.510;2023-04-07T13:59:44;6.87;;;4.00;;
6117;SDS011;3089;48.202;11.510;2023-04-07T14:02:13;7.33;;;4.20;;
6117;SDS011;3089;48.202;11.510;2023-04-07T14:04:43;7.07;;;3.93;;
6117;SDS011;3089;48.202;11.510;2023-04-07T14:07:11;8.30;;;4.23;;
6117;SDS011;3089;48.202;11.510;2023-04-07T14:09:39;6.93;;;4.13;;
6117;SDS011;3089;48.202;11.510;2023-04-07T14:12:07;8.40;;;3.90;;
6117;SDS011;3089;48.202;11.510;2023-04-07T14:14:35;8.77;;;4.27;;
6117;SDS011;3089;48.202;11.510;2023-04-07T14:17:03;7.67;;;4.50;;
6117;SDS011;3089;48.202;11.510;2023-04-07T14:19:31;9.87;;;3.90;;
6117;SDS011;3089;48.202;11.510;2023-04-07T14:22:01;8.70;;;4.13;;
6117;SDS011;3089;48.202;11.510;2023-04-07T14:24:29;8.93;;;3.50;;
6117;SDS011;3089;48.202;11.510;2023-04-07T14:26:57;6.63;;;3.50;;
6117;SDS011;3089;48.202;11.510;2023-04-07T14:29:26;6.70;;;3.47;;
6117;SDS011;3089;48.202;11.510;2023-04-07T14:31:54;7.13;;;4.00;;
6117;SDS011;3089;48.202;11.510;2023-04-07T14:34:22;7.00;;;3.73;;
6117;SDS011;3089;48.202;11.510;2023-04-07T14:36:53;9.60;;;3.50;;
6117;SDS011;3089;48.202;11.510;2023-04-07T14:39:23;7.30;;;4.03;;
6117;SDS011;3089;48.202;11.510;2023-04-07T14:41:51;5.80;;;3.67;;
6117;SDS011;3089;48.202;11.510;2023-04-07T14:44:19;6.73;;;3.30;;
6117;SDS011;3089;48.202;11.510;2023-04-07T14:46:47;6.53;;;3.47;;
6117;SDS011;3089;48.202;11.510;2023-04-07T14:49:15;9.20;;;3.60;;
6117;SDS011;3089;48.202;11.510;2023-04-07T14:51:43;8.00;;;3.80;;
6117;SDS011;3089;48.202;11.510;2023-04-07T14:54:10;7.00;;;4.37;;
6117;SDS011;3089;48.202;11.510;2023-04-07T14:56:40;7.63;;;4.23;;
6117;SDS011;3089;48.202;11.510;2023-04-07T14:59:07;7.50;;;3.93;;
6117;SDS011;3089;48.202;11.510;2023-04-07T15:01:35;8.40;;;4.20;;
6117;SDS011;3089;48.202;11.510;2023-04-07T15:04:05;7.77;;;3.80;;
6117;SDS011;3089;48.202;11.510;2023-04-07T15:06:33;8.17;;;3.87;;
6117;SDS011;3089;48.202;11.510;2023-04-07T15:09:00;6.67;;;3.60;;
6117;SDS011;3089;48.202;11.510;2023-04-07T15:11:28;6.70;;;3.53;;
6117;SDS011;3089;48.202;11.510;2023-04-07T15:13:58;6.17;;;3.43;;
6117;SDS011;3089;48.202;11.510;2023-04-07T15:16:26;8.70;;;3.50;;
6117;SDS011;3089;48.202;11.510;2023-04-07T15:18:53;6.23;;;3.60;;
6117;SDS011;3089;48.202;11.510;2023-04-07T15:21:21;10.57;;;3.90;;
6117;SDS011;3089;48.202;11.510;2023-04-07T15:23:49;6.23;;;3.53;;
6117;SDS011;3089;48.202;11.510;2023-04-07T15:26:17;7.47;;;3.97;;
6117;SDS011;3089;48.202;11.510;2023-04-07T15:28:46;5.10;;;2.93;;